sensor_id;sensor_type;location;lat;lon;timestamp;pressure;altitude;pressure_sealevel;temperature;humidity
12594;BME280;6362;50.208;9.182;2022-10-31T00:01:59;100288.72;;;9.89;100.00
12594;BME280;6362;50.208;9.182;2022-10-31T00:04:24;100287.81;;;9.87;100.00
12594;BME280;6362;50.208;9.182;2022-10-31T00:06:50;100286.13;;;9.88;100.00
12594;BME280;6362;50.208;9.182;2022-10-31T00:09:15;100296.19;;;9.82;100.00
12594;BME280;6362;50.208;9.182;2022-10-31T00:11:40;100297.88;;;9.79;100.00
12594;BME280;6362;50.208;9.182;2022-10-31T00:14:06;100299.53;;;9.79;100.00
12594;BME280;6362;50.208;9.182;2022-10-31T00:16:32;100303.69;;;9.74;100.00
12594;BME280;6362;50.208;9.182;2022-10-31T00:19:00;100302.88;;;9.75;100.00
12594;BME280;6362;50.208;9.182;2022-10-31T00:21:26;100305.44;;;9.75;100.00
12594;BME280;6362;50.208;9.182;2022-10-31T00:23:52;100300.25;;;9.72;100.00
12594;BME280;6362;50.208;9.182;2022-10-31T00:26:18;100297.75;;;9.73;100.00
12594;BME280;6362;50.208;9.182;2022-10-31T00:28:43;100298.50;;;9.69;100.00
12594;BME280;6362;50.208;9.182;2022-10-31T00:33:44;100301.94;;;9.71;100.00
12594;BME280;6362;50.208;9.182;2022-10-31T00:36:18;100309.63;;;9.74;100.00
12594;BME280;6362;50.208;9.182;2022-10-31T00:38:45;100313.06;;;9.75;100.00
12594;BME280;6362;50.208;9.182;2022-10-31T00:41:12;100309.63;;;9.73;100.00
12594;BME280;6362;50.208;9.182;2022-10-31T00:43:38;100312.94;;;9.69;100.00
12594;BME280;6362;50.208;9.182;2022-10-31T00:46:03;100313.69;;;9.65;100.00
12594;BME280;6362;50.208;9.182;2022-10-31T00:48:29;100314.53;;;9.64;100.00
12594;BME280;6362;50.208;9.182;2022-10-31T00:50:54;100314.38;;;9.57;100.00
12594;BME280;6362;50.208;9.182;2022-10-31T00:53:20;100316.09;;;9.58;100.00
12594;BME280;6362;50.208;9.182;2022-10-31T00:55:45;100322.84;;;9.56;100.00
12594;BME280;6362;50.208;9.182;2022-10-31T00:58:11;100321.94;;;9.54;100.00
12594;BME280;6362;50.208;9.182;2022-10-31T01:00:36;100315.94;;;9.51;100.00
12594;BME280;6362;50.208;9.182;2022-10-31T01:03:02;100305.72;;;9.49;100.00
12594;BME280;6362;50.208;9.182;2022-10-31T01:05:27;100309.91;;;9.47;100.00
12594;BME280;6362;50.208;9.182;2022-10-31T01:07:53;100315.00;;;9.46;100.00
12594;BME280;6362;50.208;9.182;2022-10-31T01:10:18;100316.09;;;9.57;100.00
12594;BME280;6362;50.208;9.182;2022-10-31T01:12:46;100317.94;;;9.64;100.00
12594;BME280;6362;50.208;9.182;2022-10-31T01:15:13;100319.44;;;9.56;100.00
12594;BME280;6362;50.208;9.182;2022-10-31T01:17:39;100324.44;;;9.51;100.00
12594;BME280;6362;50.208;9.182;2022-10-31T01:20:06;100318.25;;;9.40;100.00
12594;BME280;6362;50.208;9.182;2022-10-31T01:22:32;100322.50;;;9.41;100.00
12594;BME280;6362;50.208;9.182;2022-10-31T01:24:58;100316.41;;;9.33;100.00
12594;BME280;6362;50.208;9.182;2022-10-31T01:27:23;100317.09;;;9.27;100.00
12594;BME280;6362;50.208;9.182;2022-10-31T01:29:48;100314.53;;;9.26;100.00
12594;BME280;6362;50.208;9.182;2022-10-31T01:32:14;100317.78;;;9.20;100.00
12594;BME280;6362;50.208;9.182;2022-10-31T01:34:39;100317.91;;;9.25;100.00
12594;BME280;6362;50.208;9.182;2022-10-31T01:37:05;100321.44;;;9.31;100.00
12594;BME280;6362;50.208;9.182;2022-10-31T01:39:30;100318.75;;;9.25;100.00
12594;BME280;6362;50.208;9.182;2022-10-31T01:41:55;100317.69;;;9.15;100.00
12594;BME280;6362;50.208;9.182;2022-10-31T01:46:47;100316.53;;;9.03;100.00
12594;BME280;6362;50.208;9.182;2022-10-31T01:49:21;100319.91;;;9.02;100.00
12594;BME280;6362;50.208;9.182;2022-10-31T01:51:52;100313.13;;;9.01;100.00
12594;BME280;6362;50.208;9.182;2022-10-31T01:54:21;100311.25;;;8.95;100.00
12594;BME280;6362;50.208;9.182;2022-10-31T01:56:50;100313.75;;;8.93;100.00
12594;BME280;6362;50.208;9.182;2022-10-31T01:59:19;100317.19;;;8.94;100.00
12594;BME280;6362;50.208;9.182;2022-10-31T02:01:46;100318.84;;;8.92;100.00
12594;BME280;6362;50.208;9.182;2022-10-31T02:04:13;100317.09;;;8.89;100.00
12594;BME280;6362;50.208;9.182;2022-10-31T02:06:46;100314.44;;;8.86;100.00
12594;BME280;6362;50.208;9.182;2022-10-31T02:09:13;100309.31;;;8.85;100.00
12594;BME280;6362;50.208;9.182;2022-10-31T02:11:40;100308.78;;;8.98;100.00
12594;BME280;6362;50.208;9.182;2022-10-31T02:14:06;100312.06;;;8.92;100.00
12594;BME280;6362;50.208;9.182;2022-10-31T02:16:31;100312.84;;;8.90;100.00
12594;BME280;6362;50.208;9.182;2022-10-31T02:18:57;100308.63;;;8.90;100.00
12594;BME280;6362;50.208;9.182;2022-10-31T02:21:48;100305.97;;;8.86;100.00
12594;BME280;6362;50.208;9.182;2022-10-31T02:26:54;100310.88;;;8.78;100.00
12594;BME280;6362;50.208;9.182;2022-10-31T02:29:46;100305.63;;;8.72;100.00
12594;BME280;6362;50.208;9.182;2022-10-31T02:35:28;100304.56;;;8.64;100.00
12594;BME280;6362;50.208;9.182;2022-10-31T02:43:27;100291.06;;;8.66;100.00
12594;BME280;6362;50.208;9.182;2022-10-31T02:46:19;100290.59;;;8.81;100.00
12594;BME280;6362;50.208;9.182;2022-10-31T02:48:51;100282.69;;;8.70;100.00
12594;BME280;6362;50.208;9.182;2022-10-31T02:51:18;100283.47;;;8.68;100.00
12594;BME280;6362;50.208;9.182;2022-10-31T02:53:45;100286.13;;;8.72;100.00
12594;BME280;6362;50.208;9.182;2022-10-31T02:56:18;100279.56;;;8.82;100.00
12594;BME280;6362;50.208;9.182;2022-10-31T02:58:50;100283.91;;;8.86;100.00
12594;BME280;6362;50.208;9.182;2022-10-31T03:01:25;100289.22;;;8.95;100.00
12594;BME280;6362;50.208;9.182;2022-10-31T03:04:02;100285.88;;;8.98;100.00
12594;BME280;6362;50.208;9.182;2022-10-31T03:09:17;100280.03;;;9.01;100.00
12594;BME280;6362;50.208;9.182;2022-10-31T03:14:51;100288.44;;;8.98;100.00
12594;BME280;6362;50.208;9.182;2022-10-31T03:17:27;100285.94;;;9.00;100.00
12594;BME280;6362;50.208;9.182;2022-10-31T03:19:59;100283.28;;;8.95;100.00
12594;BME280;6362;50.208;9.182;2022-10-31T03:22:27;100289.25;;;8.97;100.00
12594;BME280;6362;50.208;9.182;2022-10-31T03:24:55;100286.66;;;8.94;100.00
12594;BME280;6362;50.208;9.182;2022-10-31T03:27:24;100287.41;;;8.91;100.00
12594;BME280;6362;50.208;9.182;2022-10-31T03:29:52;100292.50;;;8.90;100.00
12594;BME280;6362;50.208;9.182;2022-10-31T03:32:23;100285.78;;;8.93;100.00
12594;BME280;6362;50.208;9.182;2022-10-31T03:34:51;100290.34;;;9.07;100.00
12594;BME280;6362;50.208;9.182;2022-10-31T03:37:20;100289.44;;;9.05;100.00
12594;BME280;6362;50.208;9.182;2022-10-31T03:39:47;100297.97;;;9.07;100.00
12594;BME280;6362;50.208;9.182;2022-10-31T03:42:20;100291.38;;;9.15;100.00
12594;BME280;6362;50.208;9.182;2022-10-31T03:44:55;100291.34;;;9.13;100.00
12594;BME280;6362;50.208;9.182;2022-10-31T03:47:23;100291.22;;;9.09;100.00
12594;BME280;6362;50.208;9.182;2022-10-31T03:49:49;100288.63;;;9.07;100.00
12594;BME280;6362;50.208;9.182;2022-10-31T03:52:28;100285.19;;;9.04;100.00
12594;BME280;6362;50.208;9.182;2022-10-31T03:55:03;100290.97;;;8.98;100.00
12594;BME280;6362;50.208;9.182;2022-10-31T04:00:15;100298.44;;;8.90;100.00
12594;BME280;6362;50.208;9.182;2022-10-31T04:03:06;100293.25;;;8.86;100.00
12594;BME280;6362;50.208;9.182;2022-10-31T04:05:29;100288.09;;;8.83;100.00
12594;BME280;6362;50.208;9.182;2022-10-31T04:07:57;100289.75;;;8.82;100.00
12594;BME280;6362;50.208;9.182;2022-10-31T04:10:25;100287.13;;;8.79;100.00
12594;BME280;6362;50.208;9.182;2022-10-31T04:13:00;100289.63;;;8.76;100.00
12594;BME280;6362;50.208;9.182;2022-10-31T04:15:28;100297.25;;;8.76;100.00
12594;BME280;6362;50.208;9.182;2022-10-31T04:17:58;100289.50;;;8.71;100.00
12594;BME280;6362;50.208;9.182;2022-10-31T04:20:35;100280.97;;;8.69;100.00
12594;BME280;6362;50.208;9.182;2022-10-31T04:23:02;100283.47;;;8.68;100.00
12594;BME280;6362;50.208;9.182;2022-10-31T04:25:28;100282.53;;;8.64;100.00
12594;BME280;6362;50.208;9.182;2022-10-31T04:27:54;100283.31;;;8.62;100.00
12594;BME280;6362;50.208;9.182;2022-10-31T04:30:19;100271.66;;;8.70;100.00
12594;BME280;6362;50.208;9.182;2022-10-31T04:32:45;100275.78;;;8.65;100.00
12594;BME280;6362;50.208;9.182;2022-10-31T04:35:10;100275.69;;;8.62;100.00
12594;BME280;6362;50.208;9.182;2022-10-31T04:37:36;100273.97;;;8.61;100.00
12594;BME280;6362;50.208;9.182;2022-10-31T04:40:01;100263.72;;;8.58;100.00
12594;BME280;6362;50.208;9.182;2022-10-31T04:42:30;100264.47;;;8.53;100.00
12594;BME280;6362;50.208;9.182;2022-10-31T04:44:56;100265.50;;;8.60;100.00
12594;BME280;6362;50.208;9.182;2022-10-31T04:47:21;100270.53;;;8.59;100.00
12594;BME280;6362;50.208;9.182;2022-10-31T04:49:47;100261.97;;;8.55;100.00
12594;BME280;6362;50.208;9.182;2022-10-31T04:52:12;100260.94;;;8.48;100.00
12594;BME280;6362;50.208;9.182;2022-10-31T04:54:38;100267.03;;;8.53;100.00
12594;BME280;6362;50.208;9.182;2022-10-31T04:57:03;100268.69;;;8.53;100.00
12594;BME280;6362;50.208;9.182;2022-10-31T04:59:29;100266.06;;;8.50;100.00
12594;BME280;6362;50.208;9.182;2022-10-31T05:01:54;100268.56;;;8.48;100.00
12594;BME280;6362;50.208;9.182;2022-10-31T05:04:20;100267.91;;;8.55;100.00
12594;BME280;6362;50.208;9.182;2022-10-31T05:06:45;100262.06;;;8.58;100.00
12594;BME280;6362;50.208;9.182;2022-10-31T05:09:10;100263.59;;;8.53;100.00
12594;BME280;6362;50.208;9.182;2022-10-31T05:11:36;100268.66;;;8.51;100.00
12594;BME280;6362;50.208;9.182;2022-10-31T05:14:01;100267.03;;;8.53;100.00
12594;BME280;6362;50.208;9.182;2022-10-31T05:16:27;100268.66;;;8.51;100.00
12594;BME280;6362;50.208;9.182;2022-10-31T05:18:53;100267.66;;;8.45;100.00
12594;BME280;6362;50.208;9.182;2022-10-31T05:21:18;100264.16;;;8.41;100.00
12594;BME280;6362;50.208;9.182;2022-10-31T05:23:44;100261.81;;;8.49;100.00
12594;BME280;6362;50.208;9.182;2022-10-31T05:26:09;100261.81;;;8.49;100.00
12594;BME280;6362;50.208;9.182;2022-10-31T05:28:35;100266.81;;;8.46;100.00
12594;BME280;6362;50.208;9.182;2022-10-31T05:31:00;100271.09;;;8.47;100.00
12594;BME280;6362;50.208;9.182;2022-10-31T05:33:26;100268.56;;;8.47;100.00
12594;BME280;6362;50.208;9.182;2022-10-31T05:35:51;100274.50;;;8.47;100.00
12594;BME280;6362;50.208;9.182;2022-10-31T05:38:16;100279.47;;;8.44;100.00
12594;BME280;6362;50.208;9.182;2022-10-31T05:40:42;100275.94;;;8.39;100.00
12594;BME280;6362;50.208;9.182;2022-10-31T05:43:07;100281.72;;;8.33;100.00
12594;BME280;6362;50.208;9.182;2022-10-31T05:45:33;100285.13;;;8.34;100.00
12594;BME280;6362;50.208;9.182;2022-10-31T05:48:00;100280.16;;;8.39;100.00
12594;BME280;6362;50.208;9.182;2022-10-31T05:50:27;100277.63;;;8.39;100.00
12594;BME280;6362;50.208;9.182;2022-10-31T05:53:01;100278.63;;;8.44;100.00
12594;BME280;6362;50.208;9.182;2022-10-31T05:55:28;100275.28;;;8.45;100.00
12594;BME280;6362;50.208;9.182;2022-10-31T05:57:54;100272.00;;;8.49;100.00
12594;BME280;6362;50.208;9.182;2022-10-31T06:00:21;100273.78;;;8.53;100.00
12594;BME280;6362;50.208;9.182;2022-10-31T06:02:46;100278.44;;;8.69;100.00
12594;BME280;6362;50.208;9.182;2022-10-31T06:05:12;100278.66;;;8.80;100.00
12594;BME280;6362;50.208;9.182;2022-10-31T06:07:38;100276.06;;;8.77;100.00
12594;BME280;6362;50.208;9.182;2022-10-31T06:10:05;100268.50;;;8.80;100.00
12594;BME280;6362;50.208;9.182;2022-10-31T06:12:31;100268.38;;;8.75;100.00
12594;BME280;6362;50.208;9.182;2022-10-31T06:14:57;100278.44;;;8.71;100.00
12594;BME280;6362;50.208;9.182;2022-10-31T06:17:22;100277.56;;;8.69;100.00
12594;BME280;6362;50.208;9.182;2022-10-31T06:19:48;100274.91;;;8.64;100.00
12594;BME280;6362;50.208;9.182;2022-10-31T06:22:13;100279.13;;;8.64;100.00
12594;BME280;6362;50.208;9.182;2022-10-31T06:24:38;100277.50;;;8.66;100.00
12594;BME280;6362;50.208;9.182;2022-10-31T06:27:04;100281.66;;;8.64;100.00
12594;BME280;6362;50.208;9.182;2022-10-31T06:29:30;100279.78;;;8.91;100.00
12594;BME280;6362;50.208;9.182;2022-10-31T06:31:56;100283.97;;;9.65;100.00
12594;BME280;6362;50.208;9.182;2022-10-31T06:34:21;100276.84;;;9.90;100.00
12594;BME280;6362;50.208;9.182;2022-10-31T06:36:47;100280.50;;;10.03;100.00
12594;BME280;6362;50.208;9.182;2022-10-31T06:39:13;100286.03;;;9.83;100.00
12594;BME280;6362;50.208;9.182;2022-10-31T06:41:38;100287.69;;;9.81;100.00
12594;BME280;6362;50.208;9.182;2022-10-31T06:44:06;100283.94;;;9.62;100.00
12594;BME280;6362;50.208;9.182;2022-10-31T06:46:31;100295.56;;;9.51;100.00
12594;BME280;6362;50.208;9.182;2022-10-31T06:48:57;100278.41;;;9.42;100.00
12594;BME280;6362;50.208;9.182;2022-10-31T06:51:22;100283.84;;;9.59;100.00
12594;BME280;6362;50.208;9.182;2022-10-31T06:53:48;100287.22;;;9.58;100.00
12594;BME280;6362;50.208;9.182;2022-10-31T06:56:13;100278.78;;;9.61;100.00
12594;BME280;6362;50.208;9.182;2022-10-31T06:58:39;100277.97;;;9.62;100.00
12594;BME280;6362;50.208;9.182;2022-10-31T07:01:04;100284.03;;;9.67;100.00
12594;BME280;6362;50.208;9.182;2022-10-31T07:03:29;100282.28;;;9.66;100.00
12594;BME280;6362;50.208;9.182;2022-10-31T07:05:55;100280.72;;;9.71;100.00
12594;BME280;6362;50.208;9.182;2022-10-31T07:08:22;100287.69;;;9.79;100.00
12594;BME280;6362;50.208;9.182;2022-10-31T07:10:52;100282.72;;;9.87;100.00
12594;BME280;6362;50.208;9.182;2022-10-31T07:13:18;100286.41;;;10.01;100.00
12594;BME280;6362;50.208;9.182;2022-10-31T07:15:43;100283.38;;;10.21;100.00
12594;BME280;6362;50.208;9.182;2022-10-31T07:18:10;100292.00;;;10.28;100.00
12594;BME280;6362;50.208;9.182;2022-10-31T07:20:37;100287.34;;;10.49;100.00
12594;BME280;6362;50.208;9.182;2022-10-31T07:23:03;100294.66;;;10.82;100.00
12594;BME280;6362;50.208;9.182;2022-10-31T07:25:28;100291.97;;;11.28;100.00
12594;BME280;6362;50.208;9.182;2022-10-31T07:27:54;100289.16;;;11.75;100.00
12594;BME280;6362;50.208;9.182;2022-10-31T07:30:19;100295.78;;;12.28;100.00
12594;BME280;6362;50.208;9.182;2022-10-31T07:32:47;100288.44;;;12.65;100.00
12594;BME280;6362;50.208;9.182;2022-10-31T07:35:20;100292.91;;;12.89;100.00
12594;BME280;6362;50.208;9.182;2022-10-31T07:37:46;100287.91;;;13.04;100.00
12594;BME280;6362;50.208;9.182;2022-10-31T07:40:12;100288.81;;;13.14;100.00
12594;BME280;6362;50.208;9.182;2022-10-31T07:42:39;100284.59;;;13.18;100.00
12594;BME280;6362;50.208;9.182;2022-10-31T07:45:06;100290.53;;;13.13;100.00
12594;BME280;6362;50.208;9.182;2022-10-31T07:47:45;100291.34;;;13.09;100.00
12594;BME280;6362;50.208;9.182;2022-10-31T07:50:19;100296.41;;;13.03;100.00
12594;BME280;6362;50.208;9.182;2022-10-31T07:52:45;100288.78;;;13.06;100.00
12594;BME280;6362;50.208;9.182;2022-10-31T07:55:11;100291.31;;;13.05;100.00
12594;BME280;6362;50.208;9.182;2022-10-31T07:57:37;100291.41;;;13.16;100.00
12594;BME280;6362;50.208;9.182;2022-10-31T08:00:06;100290.72;;;13.38;100.00
12594;BME280;6362;50.208;9.182;2022-10-31T08:02:33;100284.88;;;13.62;100.00
12594;BME280;6362;50.208;9.182;2022-10-31T08:04:58;100281.56;;;13.89;100.00
12594;BME280;6362;50.208;9.182;2022-10-31T08:07:25;100276.50;;;14.15;100.00
12594;BME280;6362;50.208;9.182;2022-10-31T08:09:51;100277.41;;;14.34;100.00
12594;BME280;6362;50.208;9.182;2022-10-31T08:12:16;100274.88;;;14.57;100.00
12594;BME280;6362;50.208;9.182;2022-10-31T08:14:42;100280.00;;;14.67;100.00
12594;BME280;6362;50.208;9.182;2022-10-31T08:17:07;100283.44;;;14.63;100.00
12594;BME280;6362;50.208;9.182;2022-10-31T08:19:33;100280.81;;;14.53;100.00
12594;BME280;6362;50.208;9.182;2022-10-31T08:21:58;100282.53;;;14.50;100.00
12594;BME280;6362;50.208;9.182;2022-10-31T08:24:24;100284.25;;;14.48;100.00
12594;BME280;6362;50.208;9.182;2022-10-31T08:26:49;100279.13;;;14.46;100.00
12594;BME280;6362;50.208;9.182;2022-10-31T08:29:15;100282.53;;;14.48;100.00
12594;BME280;6362;50.208;9.182;2022-10-31T08:31:42;100287.66;;;14.42;100.00
12594;BME280;6362;50.208;9.182;2022-10-31T08:34:07;100281.66;;;14.38;100.00
12594;BME280;6362;50.208;9.182;2022-10-31T08:36:33;100272.28;;;14.39;100.00
12594;BME280;6362;50.208;9.182;2022-10-31T08:38:58;100266.28;;;14.37;100.00
12594;BME280;6362;50.208;9.182;2022-10-31T08:41:24;100263.69;;;14.35;100.00
12594;BME280;6362;50.208;9.182;2022-10-31T08:43:49;100259.44;;;14.34;100.00
12594;BME280;6362;50.208;9.182;2022-10-31T08:46:15;100263.69;;;14.34;100.00
12594;BME280;6362;50.208;9.182;2022-10-31T08:48:41;100256.84;;;14.31;100.00
12594;BME280;6362;50.208;9.182;2022-10-31T08:51:06;100262.88;;;14.36;100.00
12594;BME280;6362;50.208;9.182;2022-10-31T08:53:32;100258.56;;;14.35;100.00
12594;BME280;6362;50.208;9.182;2022-10-31T08:55:57;100255.13;;;14.24;100.00
12594;BME280;6362;50.208;9.182;2022-10-31T08:58:23;100256.84;;;14.24;100.00
12594;BME280;6362;50.208;9.182;2022-10-31T09:00:53;100252.56;;;14.23;100.00
12594;BME280;6362;50.208;9.182;2022-10-31T09:03:22;100252.59;;;14.30;100.00
12594;BME280;6362;50.208;9.182;2022-10-31T09:05:48;100244.88;;;14.29;100.00
12594;BME280;6362;50.208;9.182;2022-10-31T09:08:15;100244.88;;;14.26;100.00
12594;BME280;6362;50.208;9.182;2022-10-31T09:10:41;100238.03;;;14.32;100.00
12594;BME280;6362;50.208;9.182;2022-10-31T09:13:10;100244.88;;;14.43;100.00
12594;BME280;6362;50.208;9.182;2022-10-31T09:15:38;100250.00;;;14.52;100.00
12594;BME280;6362;50.208;9.182;2022-10-31T09:18:05;100248.34;;;14.69;100.00
12594;BME280;6362;50.208;9.182;2022-10-31T09:20:32;100248.34;;;14.74;100.00
12594;BME280;6362;50.208;9.182;2022-10-31T09:22:59;100237.19;;;14.95;100.00
12594;BME280;6362;50.208;9.182;2022-10-31T09:25:26;100234.47;;;15.52;100.00
12594;BME280;6362;50.208;9.182;2022-10-31T09:27:58;100225.63;;;16.11;100.00
12594;BME280;6362;50.208;9.182;2022-10-31T09:30:29;100218.28;;;16.70;100.00
12594;BME280;6362;50.208;9.182;2022-10-31T09:33:03;100218.03;;;17.01;100.00
12594;BME280;6362;50.208;9.182;2022-10-31T09:35:29;100216.19;;;17.11;100.00
12594;BME280;6362;50.208;9.182;2022-10-31T09:37:58;100218.81;;;17.08;100.00
12594;BME280;6362;50.208;9.182;2022-10-31T09:40:40;100221.44;;;17.04;100.00
12594;BME280;6362;50.208;9.182;2022-10-31T09:48:32;100214.69;;;18.27;100.00
12594;BME280;6362;50.208;9.182;2022-10-31T09:51:05;100227.59;;;18.82;100.00
12594;BME280;6362;50.208;9.182;2022-10-31T09:53:46;100217.97;;;19.37;100.00
12594;BME280;6362;50.208;9.182;2022-10-31T09:56:15;100209.25;;;19.83;100.00
12594;BME280;6362;50.208;9.182;2022-10-31T09:58:48;100205.06;;;19.77;96.86
12594;BME280;6362;50.208;9.182;2022-10-31T10:06:53;100201.78;;;19.69;98.25
12594;BME280;6362;50.208;9.182;2022-10-31T10:09:23;100201.16;;;19.96;95.10
12594;BME280;6362;50.208;9.182;2022-10-31T10:33:14;100194.34;;;22.69;77.91
12594;BME280;6362;50.208;9.182;2022-10-31T10:35:49;100189.41;;;22.86;74.36
12594;BME280;6362;50.208;9.182;2022-10-31T10:40:58;100188.69;;;23.08;73.21
12594;BME280;6362;50.208;9.182;2022-10-31T10:43:37;100181.81;;;22.80;75.34
12594;BME280;6362;50.208;9.182;2022-10-31T10:49:08;100182.28;;;22.92;74.30
12594;BME280;6362;50.208;9.182;2022-10-31T10:52:12;100178.00;;;22.91;73.64
12594;BME280;6362;50.208;9.182;2022-10-31T10:59:57;100161.63;;;23.36;71.02
12594;BME280;6362;50.208;9.182;2022-10-31T11:02:26;100159.41;;;23.25;75.71
12594;BME280;6362;50.208;9.182;2022-10-31T11:04:57;100148.16;;;23.24;71.24
12594;BME280;6362;50.208;9.182;2022-10-31T11:07:23;100147.94;;;23.31;74.76
12594;BME280;6362;50.208;9.182;2022-10-31T11:09:49;100145.91;;;23.61;70.26
12594;BME280;6362;50.208;9.182;2022-10-31T11:12:32;100140.09;;;23.54;67.49
12594;BME280;6362;50.208;9.182;2022-10-31T11:15:02;100135.44;;;23.17;72.29
12594;BME280;6362;50.208;9.182;2022-10-31T11:17:36;100130.66;;;23.06;73.72
12594;BME280;6362;50.208;9.182;2022-10-31T11:20:27;100130.19;;;23.18;72.92
12594;BME280;6362;50.208;9.182;2022-10-31T11:23:16;100118.34;;;23.33;72.79
12594;BME280;6362;50.208;9.182;2022-10-31T11:26:20;100118.59;;;23.03;73.93
12594;BME280;6362;50.208;9.182;2022-10-31T11:28:57;100122.94;;;22.78;75.14
12594;BME280;6362;50.208;9.182;2022-10-31T11:31:23;100122.38;;;22.70;78.95
12594;BME280;6362;50.208;9.182;2022-10-31T11:33:58;100107.97;;;22.84;76.02
12594;BME280;6362;50.208;9.182;2022-10-31T11:36:27;100110.41;;;22.40;78.89
12594;BME280;6362;50.208;9.182;2022-10-31T11:38:55;100111.03;;;22.47;81.18
12594;BME280;6362;50.208;9.182;2022-10-31T11:41:32;100112.22;;;22.63;78.45
12594;BME280;6362;50.208;9.182;2022-10-31T11:44:01;100113.09;;;22.62;79.59
12594;BME280;6362;50.208;9.182;2022-10-31T11:46:35;100098.50;;;22.58;78.35
12594;BME280;6362;50.208;9.182;2022-10-31T11:49:02;100097.31;;;22.67;79.18
12594;BME280;6362;50.208;9.182;2022-10-31T11:51:32;100098.88;;;22.96;76.71
12594;BME280;6362;50.208;9.182;2022-10-31T11:53:59;100097.34;;;22.91;78.69
12594;BME280;6362;50.208;9.182;2022-10-31T11:56:36;100093.59;;;22.99;76.21
12594;BME280;6362;50.208;9.182;2022-10-31T11:59:04;100089.81;;;23.08;77.43
12594;BME280;6362;50.208;9.182;2022-10-31T12:01:31;100084.06;;;22.98;75.57
12594;BME280;6362;50.208;9.182;2022-10-31T12:04:07;100082.53;;;22.93;78.56
12594;BME280;6362;50.208;9.182;2022-10-31T12:06:41;100080.63;;;22.74;77.64
12594;BME280;6362;50.208;9.182;2022-10-31T12:09:21;100069.22;;;22.53;78.88
12594;BME280;6362;50.208;9.182;2022-10-31T12:16:59;100059.66;;;22.03;84.66
12594;BME280;6362;50.208;9.182;2022-10-31T12:24:54;100044.63;;;21.32;87.76
12594;BME280;6362;50.208;9.182;2022-10-31T12:30:17;100044.25;;;20.88;98.54
12594;BME280;6362;50.208;9.182;2022-10-31T12:33:15;100046.88;;;20.86;97.00
12594;BME280;6362;50.208;9.182;2022-10-31T12:43:51;100033.59;;;20.67;100.00
12594;BME280;6362;50.208;9.182;2022-10-31T12:59:51;100014.84;;;21.17;94.13
12594;BME280;6362;50.208;9.182;2022-10-31T13:02:34;100004.91;;;21.30;94.60
12594;BME280;6362;50.208;9.182;2022-10-31T13:07:43;99999.59;;;21.62;92.49
12594;BME280;6362;50.208;9.182;2022-10-31T13:10:59;99997.66;;;21.68;92.68
12594;BME280;6362;50.208;9.182;2022-10-31T13:13:13;99986.78;;;21.83;89.14
12594;BME280;6362;50.208;9.182;2022-10-31T13:15:48;99990.97;;;21.87;88.99
12594;BME280;6362;50.208;9.182;2022-10-31T13:18:23;99979.25;;;22.00;88.97
12594;BME280;6362;50.208;9.182;2022-10-31T13:20:51;99973.06;;;22.04;88.57
12594;BME280;6362;50.208;9.182;2022-10-31T13:23:34;99964.53;;;22.01;89.77
12594;BME280;6362;50.208;9.182;2022-10-31T13:26:13;99968.19;;;21.95;92.46
12594;BME280;6362;50.208;9.182;2022-10-31T13:28:55;99960.66;;;21.88;90.82
12594;BME280;6362;50.208;9.182;2022-10-31T13:31:22;99967.47;;;21.90;92.40
12594;BME280;6362;50.208;9.182;2022-10-31T13:34:02;99959.69;;;21.90;93.19
12594;BME280;6362;50.208;9.182;2022-10-31T13:36:42;99961.41;;;21.91;92.11
12594;BME280;6362;50.208;9.182;2022-10-31T13:42:13;99955.13;;;21.72;91.30
12594;BME280;6362;50.208;9.182;2022-10-31T13:44:40;99961.50;;;21.63;91.56
12594;BME280;6362;50.208;9.182;2022-10-31T13:47:28;99961.19;;;21.46;94.60
12594;BME280;6362;50.208;9.182;2022-10-31T13:52:44;99951.47;;;20.97;100.00
12594;BME280;6362;50.208;9.182;2022-10-31T13:55:36;99946.72;;;20.84;100.00
12594;BME280;6362;50.208;9.182;2022-10-31T13:58:29;99935.97;;;20.68;100.00
12594;BME280;6362;50.208;9.182;2022-10-31T14:01:17;99937.09;;;20.59;100.00
12594;BME280;6362;50.208;9.182;2022-10-31T14:03:46;99931.19;;;20.52;100.00
12594;BME280;6362;50.208;9.182;2022-10-31T14:06:13;99918.63;;;20.40;100.00
12594;BME280;6362;50.208;9.182;2022-10-31T14:08:47;99913.88;;;20.25;100.00
12594;BME280;6362;50.208;9.182;2022-10-31T14:11:25;99915.94;;;20.12;100.00
12594;BME280;6362;50.208;9.182;2022-10-31T14:13:54;99918.28;;;19.90;100.00
12594;BME280;6362;50.208;9.182;2022-10-31T14:16:24;99910.03;;;19.75;100.00
12594;BME280;6362;50.208;9.182;2022-10-31T14:19:01;99913.72;;;19.65;100.00
12594;BME280;6362;50.208;9.182;2022-10-31T14:21:36;99909.69;;;19.55;100.00
12594;BME280;6362;50.208;9.182;2022-10-31T14:26:51;99896.53;;;19.30;100.00
12594;BME280;6362;50.208;9.182;2022-10-31T14:32:18;99896.97;;;19.11;100.00
12594;BME280;6362;50.208;9.182;2022-10-31T14:34:55;99894.78;;;18.96;100.00
12594;BME280;6362;50.208;9.182;2022-10-31T14:48:47;99876.91;;;18.46;100.00
12594;BME280;6362;50.208;9.182;2022-10-31T14:51:24;99883.03;;;18.42;100.00
12594;BME280;6362;50.208;9.182;2022-10-31T14:53:56;99881.47;;;18.34;100.00
12594;BME280;6362;50.208;9.182;2022-10-31T14:56:25;99885.03;;;18.28;100.00
12594;BME280;6362;50.208;9.182;2022-10-31T14:58:53;99876.63;;;18.20;100.00
12594;BME280;6362;50.208;9.182;2022-10-31T15:01:24;99888.72;;;18.16;100.00
12594;BME280;6362;50.208;9.182;2022-10-31T15:03:51;99881.00;;;18.15;100.00
12594;BME280;6362;50.208;9.182;2022-10-31T15:06:20;99871.50;;;18.17;100.00
12594;BME280;6362;50.208;9.182;2022-10-31T15:08:52;99874.91;;;18.19;100.00
12594;BME280;6362;50.208;9.182;2022-10-31T15:11:24;99868.81;;;18.21;100.00
12594;BME280;6362;50.208;9.182;2022-10-31T15:13:55;99860.13;;;18.25;100.00
12594;BME280;6362;50.208;9.182;2022-10-31T15:16:25;99851.38;;;18.33;100.00
12594;BME280;6362;50.208;9.182;2022-10-31T15:19:00;99841.81;;;18.36;100.00